createdAt,value
2022-11-24T00:15:02.515Z,3
2022-11-24T00:44:01.000Z,-1
2022-11-24T01:12:31.607Z,5
2022-11-24T01:41:25.445Z,7
2022-11-24T02:10:14.301Z,7
2022-11-24T02:39:04.300Z,7
2022-11-24T03:07:54.192Z,7
2022-11-24T03:36:23.271Z,7
2022-11-24T04:05:02.493Z,7
2022-11-24T04:33:38.096Z,9
2022-11-24T05:02:14.441Z,9
2022-11-24T05:30:52.282Z,9
2022-11-24T05:59:38.855Z,13
2022-11-24T06:28:03.720Z,10
2022-11-24T06:56:46.806Z,13
2022-11-24T07:25:25.593Z,9
2022-11-24T07:54:09.348Z,9
2022-11-24T08:22:37.961Z,10
2022-11-24T08:51:16.521Z,12
2022-11-24T09:49:55.013Z,10
2022-11-24T10:18:31.118Z,13
2022-11-24T10:47:26.118Z,10
2022-11-24T11:16:08.611Z,9
2022-11-24T11:44:45.040Z,7
2022-11-24T12:13:14.614Z,6
2022-11-24T12:41:45.294Z,4
2022-11-24T13:10:06.717Z,6
2022-11-24T13:38:55.017Z,7
2022-11-24T14:06:58.299Z,4
2022-11-24T14:35:12.043Z,6
2022-11-24T15:03:27.539Z,7
2022-11-24T15:34:28.901Z,9
2022-11-24T16:02:32.445Z,7
2022-11-24T16:31:24.671Z,19
2022-11-24T16:59:39.900Z,10
2022-11-24T17:27:45.810Z,7
2022-11-24T17:56:19.044Z,11
2022-11-24T18:24:38.799Z,16
2022-11-24T18:52:54.627Z,11
2022-11-24T19:21:18.025Z,11
2022-11-24T19:49:41.086Z,17
2022-11-24T20:18:09.626Z,39
2022-11-24T20:46:30.556Z,33
2022-11-24T21:15:01.340Z,25
2022-11-24T21:43:29.587Z,15
2022-11-24T22:11:50.838Z,21
2022-11-24T22:40:30.078Z,13
2022-11-24T23:09:13.218Z,17
2022-11-24T23:38:09.727Z,14
